Terminal Aerodrome Forecast
Issued by NWS

Home | Current Version | Previous Version | Text Only | Print | Product List | Glossary On
Versions: 1 2 3 4 5 6 7 8 9 10 11 12 13 14 15 16 17 18 19
992
FTUS46 KHNX 031723
TAFFAT
TAF
KFAT 031723Z 0318/0418 14004KT 3SM BR FEW250
     FM032000 14003KT 4SM HZ SKC
     FM040900 00000KT 3SM BR SKC=

USA.gov is the U.S. government's official web portal to all federal, state and local government web resources and services.